^^
Station Historical Data
Daily Summary for September 22, 2017 Units:  Both    English   Metric
« Previous Day
Next Day »
Daily Weekly Monthly Yearly Custom
  High: Low: Average:
Temperature: TemperatureF °F /  -17.8 °C 57.7 °F /  14.3 °C 76 °F /  24.4 °C
Dew Point: DewpointF °F /  -17.8 °C 28.2 °F /  -2.1 °C 33.3 °F /  0.7 °C
Humidity: Humidity% 10% 23%
Wind Speed: WindSpeedMPHmph /  0km/h - 0.6mph /  1km/h
Wind Gust: WindSpeedGustMPHmph /  0km/h - -
Wind- - WSW
Pressure: PressureIn in /  0 hPa 30.14 in /  1020.5 hPa -
Precipitation: 0.00 in /  0 mm    
Historical Graphs
 
 
Tabular Data for September 22, 2017
Time Temperature Dew Point Pressure Wind Wind Speed Wind Gust Humidity Rainfall Rate (Hourly) solar Conditions
TemperatureF °F /  -17.8 °C DewpointF °F /  -17.8 °C PressureInin /  0hPa Calm     Humidity% HourlyPrecipInin /  0mm SolarRadiationWatts/m^2 W/m2 Conditions
00:00 68.2 °F /  20.1 °C 30.0 °F /  -1.1 °C 30.20in /  1022.6hPa Calm     24% 0.00in /  0mm 0.0 W/m2
00:06 67.8 °F /  19.9 °C 29.7 °F /  -1.3 °C 30.20in /  1022.6hPa Calm   2.0mph /  3.2km/h 24% 0.00in /  0mm 0.0 W/m2
00:12 67.8 °F /  19.9 °C 29.7 °F /  -1.3 °C 30.20in /  1022.6hPa Calm   1.0mph /  1.6km/h 24% 0.00in /  0mm 0.0 W/m2
00:18 67.6 °F /  19.8 °C 29.5 °F /  -1.4 °C 30.20in /  1022.6hPa Calm   1.0mph /  1.6km/h 24% 0.00in /  0mm 0.0 W/m2
00:24 67.6 °F /  19.8 °C 29.5 °F /  -1.4 °C 30.20in /  1022.6hPa Calm   2.0mph /  3.2km/h 24% 0.00in /  0mm 0.0 W/m2
00:30 67.5 °F /  19.7 °C 30.4 °F /  -0.9 °C 30.20in /  1022.6hPa Calm   1.0mph /  1.6km/h 25% 0.00in /  0mm 0.0 W/m2
00:36 67.3 °F /  19.6 °C 30.2 °F /  -1 °C 30.20in /  1022.6hPa Calm     25% 0.00in /  0mm 0.0 W/m2
00:42 67.3 °F /  19.6 °C 30.2 °F /  -1 °C 30.20in /  1022.6hPa Calm   2.0mph /  3.2km/h 25% 0.00in /  0mm 0.0 W/m2
00:48 66.9 °F /  19.4 °C 30.0 °F /  -1.1 °C 30.20in /  1022.6hPa Calm     25% 0.00in /  0mm 0.0 W/m2
00:54 66.7 °F /  19.3 °C 29.8 °F /  -1.2 °C 30.20in /  1022.6hPa Calm   1.0mph /  1.6km/h 25% 0.00in /  0mm 0.0 W/m2
01:02 66.6 °F /  19.2 °C 30.6 °F /  -0.8 °C 30.20in /  1022.6hPa ENE 0.9mph /  1.4km/h 3.0mph /  4.8km/h 26% 0.00in /  0mm 0.0 W/m2
01:08 66.4 °F /  19.1 °C 30.4 °F /  -0.9 °C 30.20in /  1022.6hPa Calm   1.0mph /  1.6km/h 26% 0.00in /  0mm 0.0 W/m2
01:14 66.4 °F /  19.1 °C 30.4 °F /  -0.9 °C 30.20in /  1022.6hPa Calm   1.0mph /  1.6km/h 26% 0.00in /  0mm 0.0 W/m2
01:20 66.0 °F /  18.9 °C 30.2 °F /  -1 °C 30.20in /  1022.6hPa Calm     26% 0.00in /  0mm 0.0 W/m2
01:26 66.0 °F /  18.9 °C 31.1 °F /  -0.5 °C 30.20in /  1022.6hPa Calm     27% 0.00in /  0mm 0.0 W/m2
01:32 65.8 °F /  18.8 °C 30.9 °F /  -0.6 °C 30.20in /  1022.6hPa Calm     27% 0.00in /  0mm 0.0 W/m2
01:38 65.7 °F /  18.7 °C 30.7 °F /  -0.7 °C 30.20in /  1022.6hPa Calm     27% 0.00in /  0mm 0.0 W/m2
01:44 65.3 °F /  18.5 °C 31.3 °F /  -0.4 °C 30.20in /  1022.6hPa Calm     28% 0.00in /  0mm 0.0 W/m2
01:50 64.9 °F /  18.3 °C 31.1 °F /  -0.5 °C 30.20in /  1022.6hPa Calm     28% 0.00in /  0mm 0.0 W/m2
01:56 64.8 °F /  18.2 °C 30.9 °F /  -0.6 °C 30.20in /  1022.6hPa Calm     28% 0.00in /  0mm 0.0 W/m2
02:02 64.4 °F /  18 °C 30.6 °F /  -0.8 °C 30.20in /  1022.6hPa Calm     28% 0.00in /  0mm 0.0 W/m2
02:08 64.2 °F /  17.9 °C 30.4 °F /  -0.9 °C 30.20in /  1022.6hPa Calm     28% 0.00in /  0mm 0.0 W/m2
02:14 64.0 °F /  17.8 °C 31.1 °F /  -0.5 °C 30.20in /  1022.6hPa Calm   1.0mph /  1.6km/h 29% 0.00in /  0mm 0.0 W/m2
02:20 63.9 °F /  17.7 °C 30.9 °F /  -0.6 °C 30.20in /  1022.6hPa Calm     29% 0.00in /  0mm 0.0 W/m2
02:26 63.9 °F /  17.7 °C 30.9 °F /  -0.6 °C 30.20in /  1022.6hPa Calm     29% 0.00in /  0mm 0.0 W/m2
02:32 63.7 °F /  17.6 °C 30.7 °F /  -0.7 °C 30.20in /  1022.6hPa Calm     29% 0.00in /  0mm 0.0 W/m2
02:38 63.3 °F /  17.4 °C 30.6 °F /  -0.8 °C 30.20in /  1022.6hPa Calm     29% 0.00in /  0mm 0.0 W/m2
02:44 63.1 °F /  17.3 °C 31.3 °F /  -0.4 °C 30.20in /  1022.6hPa Calm     30% 0.00in /  0mm 0.0 W/m2
02:50 63.0 °F /  17.2 °C 31.1 °F /  -0.5 °C 30.20in /  1022.6hPa Calm     30% 0.00in /  0mm 0.0 W/m2
02:56 62.8 °F /  17.1 °C 30.9 °F /  -0.6 °C 30.20in /  1022.6hPa Calm   1.0mph /  1.6km/h 30% 0.00in /  0mm 0.0 W/m2
03:02 62.4 °F /  16.9 °C 30.6 °F /  -0.8 °C 30.20in /  1022.6hPa Calm     30% 0.00in /  0mm 0.0 W/m2
03:08 62.1 °F /  16.7 °C 31.1 °F /  -0.5 °C 30.20in /  1022.6hPa Calm     31% 0.00in /  0mm 0.0 W/m2
03:14 61.9 °F /  16.6 °C 30.9 °F /  -0.6 °C 30.20in /  1022.6hPa Calm     31% 0.00in /  0mm 0.0 W/m2
03:20 61.5 °F /  16.4 °C 30.6 °F /  -0.8 °C 30.20in /  1022.6hPa Calm     31% 0.00in /  0mm 0.0 W/m2
03:26 61.3 °F /  16.3 °C 31.3 °F /  -0.4 °C 30.20in /  1022.6hPa Calm     32% 0.00in /  0mm 0.0 W/m2
03:32 61.2 °F /  16.2 °C 31.1 °F /  -0.5 °C 30.20in /  1022.6hPa Calm     32% 0.00in /  0mm 0.0 W/m2
03:38 61.0 °F /  16.1 °C 30.9 °F /  -0.6 °C 30.20in /  1022.6hPa Calm   2.0mph /  3.2km/h 32% 0.00in /  0mm 0.0 W/m2
03:44 61.2 °F /  16.2 °C 31.1 °F /  -0.5 °C 30.20in /  1022.6hPa Calm     32% 0.00in /  0mm 0.0 W/m2
03:50 61.2 °F /  16.2 °C 31.8 °F /  -0.1 °C 30.20in /  1022.6hPa Calm     33% 0.00in /  0mm 0.0 W/m2
03:56 61.2 °F /  16.2 °C 31.1 °F /  -0.5 °C 30.20in /  1022.6hPa Calm     32% 0.00in /  0mm 0.0 W/m2
04:02 61.0 °F /  16.1 °C 30.9 °F /  -0.6 °C 30.20in /  1022.6hPa Calm     32% 0.00in /  0mm 0.0 W/m2
04:08 61.0 °F /  16.1 °C 30.9 °F /  -0.6 °C 30.20in /  1022.6hPa Calm     32% 0.00in /  0mm 0.0 W/m2
04:14 61.0 °F /  16.1 °C 30.9 °F /  -0.6 °C 30.20in /  1022.6hPa Calm     32% 0.00in /  0mm 0.0 W/m2
04:20 61.0 °F /  16.1 °C 30.9 °F /  -0.6 °C 30.20in /  1022.6hPa Calm     32% 0.00in /  0mm 0.0 W/m2
04:26 61.0 °F /  16.1 °C 30.9 °F /  -0.6 °C 30.20in /  1022.6hPa Calm     32% 0.00in /  0mm 0.0 W/m2
04:32 60.6 °F /  15.9 °C 30.6 °F /  -0.8 °C 30.20in /  1022.6hPa Calm   1.0mph /  1.6km/h 32% 0.00in /  0mm 0.0 W/m2
04:38 60.6 °F /  15.9 °C 31.3 °F /  -0.4 °C 30.20in /  1022.6hPa Calm     33% 0.00in /  0mm 0.0 W/m2
04:44 60.4 °F /  15.8 °C 31.3 °F /  -0.4 °C 30.20in /  1022.6hPa Calm     33% 0.00in /  0mm 0.0 W/m2
04:50 60.3 °F /  15.7 °C 31.1 °F /  -0.5 °C 30.20in /  1022.6hPa Calm     33% 0.00in /  0mm 0.0 W/m2
04:56 60.3 °F /  15.7 °C 31.1 °F /  -0.5 °C 30.21in /  1022.9hPa Calm     33% 0.00in /  0mm 0.0 W/m2
05:02 59.9 °F /  15.5 °C 31.5 °F /  -0.3 °C 30.21in /  1022.9hPa Calm     34% 0.00in /  0mm 0.0 W/m2
05:08 59.7 °F /  15.4 °C 31.3 °F /  -0.4 °C 30.21in /  1022.9hPa Calm     34% 0.00in /  0mm 0.0 W/m2
05:14 59.4 °F /  15.2 °C 31.6 °F /  -0.2 °C 30.21in /  1022.9hPa Calm     35% 0.00in /  0mm 0.0 W/m2
05:20 59.2 °F /  15.1 °C 31.5 °F /  -0.3 °C 30.21in /  1022.9hPa Calm     35% 0.00in /  0mm 0.0 W/m2
05:26 58.8 °F /  14.9 °C 31.3 °F /  -0.4 °C 30.21in /  1022.9hPa Calm     35% 0.00in /  0mm 0.0 W/m2
05:32 58.8 °F /  14.9 °C 32.0 °F /  0 °C 30.21in /  1022.9hPa Calm     36% 0.00in /  0mm 0.0 W/m2
05:38 58.6 °F /  14.8 °C 31.8 °F /  -0.1 °C 30.21in /  1022.9hPa Calm     36% 0.00in /  0mm 0.0 W/m2
05:44 58.5 °F /  14.7 °C 31.6 °F /  -0.2 °C 30.21in /  1022.9hPa Calm   2.0mph /  3.2km/h 36% 0.00in /  0mm 0.0 W/m2
05:50 58.5 °F /  14.7 °C 31.6 °F /  -0.2 °C 30.21in /  1022.9hPa Calm     36% 0.00in /  0mm 0.0 W/m2
05:56 58.3 °F /  14.6 °C 31.5 °F /  -0.3 °C 30.21in /  1022.9hPa Calm     36% 0.00in /  0mm 0.0 W/m2
06:02 58.3 °F /  14.6 °C 31.5 °F /  -0.3 °C 30.22in /  1023.2hPa Calm     36% 0.00in /  0mm 0.0 W/m2
06:08 58.5 °F /  14.7 °C 31.6 °F /  -0.2 °C 30.22in /  1023.2hPa Calm   1.0mph /  1.6km/h 36% 0.00in /  0mm 0.0 W/m2
06:14 58.5 °F /  14.7 °C 31.6 °F /  -0.2 °C 30.22in /  1023.2hPa Calm     36% 0.00in /  0mm 0.0 W/m2
06:20 58.5 °F /  14.7 °C 31.6 °F /  -0.2 °C 30.23in /  1023.6hPa Calm     36% 0.00in /  0mm 0.0 W/m2
06:26 58.5 °F /  14.7 °C 31.6 °F /  -0.2 °C 30.23in /  1023.6hPa Calm     36% 0.00in /  0mm 0.0 W/m2
06:32 58.5 °F /  14.7 °C 31.6 °F /  -0.2 °C 30.23in /  1023.6hPa Calm     36% 0.00in /  0mm 0.0 W/m2
06:38 58.1 °F /  14.5 °C 31.3 °F /  -0.4 °C 30.23in /  1023.6hPa Calm     36% 0.00in /  0mm 0.0 W/m2
06:44 57.9 °F /  14.4 °C 32.5 °F /  0.3 °C 30.24in /  1023.9hPa Calm     38% 0.00in /  0mm 0.0 W/m2
06:50 57.9 °F /  14.4 °C 32.5 °F /  0.3 °C 30.24in /  1023.9hPa Calm     38% 0.00in /  0mm 7.0 W/m2
06:56 57.7 °F /  14.3 °C 32.4 °F /  0.2 °C 30.24in /  1023.9hPa Calm     38% 0.00in /  0mm 11.0 W/m2
07:02 57.9 °F /  14.4 °C 32.5 °F /  0.3 °C 30.25in /  1024.3hPa Calm     38% 0.00in /  0mm 16.0 W/m2
07:08 57.9 °F /  14.4 °C 32.5 °F /  0.3 °C 30.25in /  1024.3hPa Calm     38% 0.00in /  0mm 21.0 W/m2
07:14 58.3 °F /  14.6 °C 32.7 °F /  0.4 °C 30.25in /  1024.3hPa Calm     38% 0.00in /  0mm 25.0 W/m2
07:20 58.8 °F /  14.9 °C 33.3 °F /  0.7 °C 30.25in /  1024.3hPa Calm   3.0mph /  4.8km/h 38% 0.00in /  0mm 30.0 W/m2
07:26 59.4 °F /  15.2 °C 33.8 °F /  1 °C 30.25in /  1024.3hPa Calm   2.0mph /  3.2km/h 38% 0.00in /  0mm 35.0 W/m2
07:32 59.7 °F /  15.4 °C 33.4 °F /  0.8 °C 30.25in /  1024.3hPa Calm   1.0mph /  1.6km/h 37% 0.00in /  0mm 40.0 W/m2
07:38 60.4 °F /  15.8 °C 34.0 °F /  1.1 °C 30.26in /  1024.6hPa Calm   2.0mph /  3.2km/h 37% 0.00in /  0mm 44.0 W/m2
07:44 61.0 °F /  16.1 °C 34.5 °F /  1.4 °C 30.26in /  1024.6hPa Calm   2.0mph /  3.2km/h 37% 0.00in /  0mm 49.0 W/m2
07:50 61.5 °F /  16.4 °C 34.3 °F /  1.3 °C 30.26in /  1024.6hPa Calm   2.0mph /  3.2km/h 36% 0.00in /  0mm 53.0 W/m2
07:56 62.2 °F /  16.8 °C 34.9 °F /  1.6 °C 30.26in /  1024.6hPa Calm   1.0mph /  1.6km/h 36% 0.00in /  0mm 58.0 W/m2
08:02 63.0 °F /  17.2 °C 34.9 °F /  1.6 °C 30.26in /  1024.6hPa Calm     35% 0.00in /  0mm 62.0 W/m2
08:08 63.3 °F /  17.4 °C 35.2 °F /  1.8 °C 30.26in /  1024.6hPa Calm     35% 0.00in /  0mm 65.0 W/m2
08:14 64.0 °F /  17.8 °C 36.5 °F /  2.5 °C 30.27in /  1024.9hPa Calm     36% 0.00in /  0mm 69.0 W/m2
08:20 64.6 °F /  18.1 °C 37.0 °F /  2.8 °C 30.27in /  1024.9hPa Calm   1.0mph /  1.6km/h 36% 0.00in /  0mm 72.0 W/m2
08:26 65.5 °F /  18.6 °C 37.0 °F /  2.8 °C 30.27in /  1024.9hPa Calm   2.0mph /  3.2km/h 35% 0.00in /  0mm 76.0 W/m2
08:33 66.4 °F /  19.1 °C 37.9 °F /  3.3 °C 30.27in /  1024.9hPa Calm     35% 0.00in /  0mm 79.0 W/m2
08:38 67.5 °F /  19.7 °C 38.1 °F /  3.4 °C 30.27in /  1024.9hPa Calm   3.0mph /  4.8km/h 34% 0.00in /  0mm 83.0 W/m2
08:45 69.3 °F /  20.7 °C 38.1 °F /  3.4 °C 30.27in /  1024.9hPa Calm   1.0mph /  1.6km/h 32% 0.00in /  0mm 86.0 W/m2
08:51 70.9 °F /  21.6 °C 37.9 °F /  3.3 °C 30.27in /  1024.9hPa NE 2.9mph /  4.7km/h 3.0mph /  4.8km/h 30% 0.00in /  0mm 90.0 W/m2
08:57 72.1 °F /  22.3 °C 38.1 °F /  3.4 °C 30.27in /  1024.9hPa Calm     29% 0.00in /  0mm 95.0 W/m2
09:03 73.0 °F /  22.8 °C 38.8 °F /  3.8 °C 30.27in /  1024.9hPa North 2.0mph /  3.2km/h 2.0mph /  3.2km/h 29% 0.00in /  0mm 97.0 W/m2
09:09 74.1 °F /  23.4 °C 39.0 °F /  3.9 °C 30.27in /  1024.9hPa Calm     28% 0.00in /  0mm 100.0 W/m2
09:15 74.8 °F /  23.8 °C 39.6 °F /  4.2 °C 30.27in /  1024.9hPa Calm     28% 0.00in /  0mm 104.0 W/m2
09:21 75.6 °F /  24.2 °C 39.2 °F /  4 °C 30.27in /  1024.9hPa NNW 0.9mph /  1.4km/h 2.0mph /  3.2km/h 27% 0.00in /  0mm 107.0 W/m2
09:27 76.5 °F /  24.7 °C 39.0 °F /  3.9 °C 30.27in /  1024.9hPa Calm   3.0mph /  4.8km/h 26% 0.00in /  0mm 113.0 W/m2
09:33 77.0 °F /  25 °C 38.5 °F /  3.6 °C 30.27in /  1024.9hPa Calm   2.0mph /  3.2km/h 25% 0.00in /  0mm 120.0 W/m2
09:39 77.5 °F /  25.3 °C 39.0 °F /  3.9 °C 30.27in /  1024.9hPa Calm     25% 0.00in /  0mm 496.0 W/m2
09:45 78.4 °F /  25.8 °C 40.6 °F /  4.8 °C 30.27in /  1024.9hPa NNE 2.9mph /  4.7km/h 3.0mph /  4.8km/h 26% 0.00in /  0mm 519.0 W/m2
09:51 79.3 °F /  26.3 °C 40.5 °F /  4.7 °C 30.27in /  1024.9hPa Calm   4.0mph /  6.4km/h 25% 0.00in /  0mm 538.0 W/m2
09:57 80.4 °F /  26.9 °C 40.3 °F /  4.6 °C 30.27in /  1024.9hPa Calm   4.0mph /  6.4km/h 24% 0.00in /  0mm 554.0 W/m2
10:03 81.1 °F /  27.3 °C 41.0 °F /  5 °C 30.27in /  1024.9hPa WNW 2.0mph /  3.2km/h 6.0mph /  9.7km/h 24% 0.00in /  0mm 570.0 W/m2
10:09 81.9 °F /  27.7 °C 41.5 °F /  5.3 °C 30.27in /  1024.9hPa West 4.9mph /  7.9km/h 6.0mph /  9.7km/h 24% 0.00in /  0mm 585.0 W/m2
10:15 82.0 °F /  27.8 °C 40.6 °F /  4.8 °C 30.27in /  1024.9hPa NNW 2.9mph /  4.7km/h 5.0mph /  8km/h 23% 0.00in /  0mm 603.0 W/m2
10:21 82.2 °F /  27.9 °C 40.8 °F /  4.9 °C 30.26in /  1024.6hPa NW 2.9mph /  4.7km/h 6.0mph /  9.7km/h 23% 0.00in /  0mm 617.0 W/m2
10:27 82.6 °F /  28.1 °C 41.0 °F /  5 °C 30.26in /  1024.6hPa NNE 4.0mph /  6.4km/h 7.0mph /  11.3km/h 23% 0.00in /  0mm 631.0 W/m2
10:33 82.9 °F /  28.3 °C 41.4 °F /  5.2 °C 30.26in /  1024.6hPa NW 4.0mph /  6.4km/h 9.0mph /  14.5km/h 23% 0.00in /  0mm 647.0 W/m2
10:39 83.7 °F /  28.7 °C 40.8 °F /  4.9 °C 30.25in /  1024.3hPa NNE 2.0mph /  3.2km/h 4.0mph /  6.4km/h 22% 0.00in /  0mm 664.0 W/m2
10:45 83.8 °F /  28.8 °C 42.1 °F /  5.6 °C 30.25in /  1024.3hPa NNW 2.9mph /  4.7km/h 7.0mph /  11.3km/h 23% 0.00in /  0mm 673.0 W/m2
10:54 84.4 °F /  29.1 °C 41.4 °F /  5.2 °C 30.25in /  1024.3hPa Calm   2.0mph /  3.2km/h 22% 0.00in /  0mm 693.0 W/m2
11:00 84.7 °F /  29.3 °C 40.5 °F /  4.7 °C 30.25in /  1024.3hPa North 0.9mph /  1.4km/h 5.0mph /  8km/h 21% 0.00in /  0mm 712.0 W/m2
11:06 84.9 °F /  29.4 °C 40.6 °F /  4.8 °C 30.25in /  1024.3hPa Calm   5.0mph /  8km/h 21% 0.00in /  0mm 719.0 W/m2
11:12 85.5 °F /  29.7 °C 41.0 °F /  5 °C 30.25in /  1024.3hPa NNW 0.9mph /  1.4km/h 6.0mph /  9.7km/h 21% 0.00in /  0mm 729.0 W/m2
11:18 86.0 °F /  30 °C 40.3 °F /  4.6 °C 30.25in /  1024.3hPa Calm   5.0mph /  8km/h 20% 0.00in /  0mm 742.0 W/m2
11:24 86.5 °F /  30.3 °C 40.6 °F /  4.8 °C 30.24in /  1023.9hPa WNW 6.9mph /  11.1km/h 7.0mph /  11.3km/h 20% 0.00in /  0mm 751.0 W/m2
11:30 87.3 °F /  30.7 °C 41.4 °F /  5.2 °C 30.24in /  1023.9hPa NW 0.9mph /  1.4km/h 6.0mph /  9.7km/h 20% 0.00in /  0mm 759.0 W/m2
11:37 87.8 °F /  31 °C 40.5 °F /  4.7 °C 30.23in /  1023.6hPa Calm   6.0mph /  9.7km/h 19% 0.00in /  0mm 770.0 W/m2
11:43 87.8 °F /  31 °C 40.5 °F /  4.7 °C 30.23in /  1023.6hPa SW 2.0mph /  3.2km/h 5.0mph /  8km/h 19% 0.00in /  0mm 773.0 W/m2
11:49 87.8 °F /  31 °C 40.5 °F /  4.7 °C 30.23in /  1023.6hPa NNW 2.0mph /  3.2km/h 8.0mph /  12.9km/h 19% 0.00in /  0mm 791.0 W/m2
11:55 88.2 °F /  31.2 °C 39.4 °F /  4.1 °C 30.23in /  1023.6hPa West 2.0mph /  3.2km/h 4.0mph /  6.4km/h 18% 0.00in /  0mm 788.0 W/m2
12:01 88.0 °F /  31.1 °C 40.6 °F /  4.8 °C 30.22in /  1023.2hPa NW 0.9mph /  1.4km/h 3.0mph /  4.8km/h 19% 0.00in /  0mm 798.0 W/m2
12:07 88.0 °F /  31.1 °C 40.6 °F /  4.8 °C 30.22in /  1023.2hPa Calm   8.0mph /  12.9km/h 19% 0.00in /  0mm 802.0 W/m2
12:13 88.2 °F /  31.2 °C 39.4 °F /  4.1 °C 30.22in /  1023.2hPa Calm   5.0mph /  8km/h 18% 0.00in /  0mm 795.0 W/m2
12:19 88.5 °F /  31.4 °C 39.6 °F /  4.2 °C 30.22in /  1023.2hPa NW 0.9mph /  1.4km/h 7.0mph /  11.3km/h 18% 0.00in /  0mm 812.0 W/m2
12:25 89.1 °F /  31.7 °C 40.1 °F /  4.5 °C 30.21in /  1022.9hPa NNW 2.0mph /  3.2km/h 5.0mph /  8km/h 18% 0.00in /  0mm 810.0 W/m2
12:31 89.2 °F /  31.8 °C 38.7 °F /  3.7 °C 30.21in /  1022.9hPa NW 2.9mph /  4.7km/h 5.0mph /  8km/h 17% 0.00in /  0mm 803.0 W/m2
12:37 89.6 °F /  32 °C 39.0 °F /  3.9 °C 30.20in /  1022.6hPa SSW 0.9mph /  1.4km/h 3.0mph /  4.8km/h 17% 0.00in /  0mm 810.0 W/m2
12:43 90.0 °F /  32.2 °C 39.4 °F /  4.1 °C 30.20in /  1022.6hPa NNW 2.0mph /  3.2km/h 8.0mph /  12.9km/h 17% 0.00in /  0mm 809.0 W/m2
12:49 90.1 °F /  32.3 °C 37.9 °F /  3.3 °C 30.20in /  1022.6hPa Calm   5.0mph /  8km/h 16% 0.00in /  0mm 817.0 W/m2
12:55 90.3 °F /  32.4 °C 38.1 °F /  3.4 °C 30.20in /  1022.6hPa NW 4.9mph /  7.9km/h 7.0mph /  11.3km/h 16% 0.00in /  0mm 828.0 W/m2
13:02 90.3 °F /  32.4 °C 38.1 °F /  3.4 °C 30.20in /  1022.6hPa WNW 4.9mph /  7.9km/h 5.0mph /  8km/h 16% 0.00in /  0mm 819.0 W/m2
13:08 90.0 °F /  32.2 °C 37.8 °F /  3.2 °C 30.20in /  1022.6hPa Calm   1.0mph /  1.6km/h 16% 0.00in /  0mm 803.0 W/m2
13:14 90.1 °F /  32.3 °C 37.9 °F /  3.3 °C 30.19in /  1022.2hPa Calm   3.0mph /  4.8km/h 16% 0.00in /  0mm 795.0 W/m2
13:20 90.7 °F /  32.6 °C 36.7 °F /  2.6 °C 30.19in /  1022.2hPa Calm   3.0mph /  4.8km/h 15% 0.00in /  0mm 800.0 W/m2
13:26 91.2 °F /  32.9 °C 35.4 °F /  1.9 °C 30.19in /  1022.2hPa Calm   9.0mph /  14.5km/h 14% 0.00in /  0mm 803.0 W/m2
13:32 91.4 °F /  33 °C 33.6 °F /  0.9 °C 30.18in /  1021.9hPa North 2.0mph /  3.2km/h 3.0mph /  4.8km/h 13% 0.00in /  0mm 796.0 W/m2
13:38 91.0 °F /  32.8 °C 31.5 °F /  -0.3 °C 30.18in /  1021.9hPa SW 4.0mph /  6.4km/h 7.0mph /  11.3km/h 12% 0.00in /  0mm 770.0 W/m2
13:45 90.5 °F /  32.5 °C 30.9 °F /  -0.6 °C 30.18in /  1021.9hPa WNW 0.9mph /  1.4km/h 6.0mph /  9.7km/h 12% 0.00in /  0mm 751.0 W/m2
13:51 90.9 °F /  32.7 °C 35.1 °F /  1.7 °C 30.18in /  1021.9hPa Calm   3.0mph /  4.8km/h 14% 0.00in /  0mm 751.0 W/m2
13:57 90.9 °F /  32.7 °C 33.3 °F /  0.7 °C 30.18in /  1021.9hPa WSW 2.9mph /  4.7km/h 5.0mph /  8km/h 13% 0.00in /  0mm 751.0 W/m2
14:03 91.0 °F /  32.8 °C 31.5 °F /  -0.3 °C 30.18in /  1021.9hPa Calm   3.0mph /  4.8km/h 12% 0.00in /  0mm 751.0 W/m2
14:09 90.7 °F /  32.6 °C 33.1 °F /  0.6 °C 30.18in /  1021.9hPa Calm   2.0mph /  3.2km/h 13% 0.00in /  0mm 745.0 W/m2
14:15 91.0 °F /  32.8 °C 31.5 °F /  -0.3 °C 30.18in /  1021.9hPa Calm   5.0mph /  8km/h 12% 0.00in /  0mm 742.0 W/m2
14:21 91.6 °F /  33.1 °C 31.8 °F /  -0.1 °C 30.17in /  1021.6hPa WSW 0.9mph /  1.4km/h 7.0mph /  11.3km/h 12% 0.00in /  0mm 715.0 W/m2
14:27 91.8 °F /  33.2 °C 32.0 °F /  0 °C 30.17in /  1021.6hPa West 2.9mph /  4.7km/h 4.0mph /  6.4km/h 12% 0.00in /  0mm 712.0 W/m2
14:33 92.1 °F /  33.4 °C 32.2 °F /  0.1 °C 30.17in /  1021.6hPa North 8.1mph /  13km/h 8.1mph /  13km/h 12% 0.00in /  0mm 698.0 W/m2
14:40 92.1 °F /  33.4 °C 32.2 °F /  0.1 °C 30.16in /  1021.2hPa NE 4.9mph /  7.9km/h 5.0mph /  8km/h 12% 0.00in /  0mm 686.0 W/m2
14:46 92.7 °F /  33.7 °C 30.6 °F /  -0.8 °C 30.16in /  1021.2hPa NW 2.0mph /  3.2km/h 5.0mph /  8km/h 11% 0.00in /  0mm 668.0 W/m2
14:52 92.8 °F /  33.8 °C 30.6 °F /  -0.8 °C 30.16in /  1021.2hPa NW 4.9mph /  7.9km/h 9.0mph /  14.5km/h 11% 0.00in /  0mm 664.0 W/m2
14:58 92.8 °F /  33.8 °C 30.6 °F /  -0.8 °C 30.16in /  1021.2hPa NNW 0.9mph /  1.4km/h 4.0mph /  6.4km/h 11% 0.00in /  0mm 642.0 W/m2
15:04 93.0 °F /  33.9 °C 30.7 °F /  -0.7 °C 30.16in /  1021.2hPa NW 2.9mph /  4.7km/h 5.0mph /  8km/h 11% 0.00in /  0mm 624.0 W/m2
15:10 93.4 °F /  34.1 °C 31.1 °F /  -0.5 °C 30.16in /  1021.2hPa North 2.9mph /  4.7km/h 4.0mph /  6.4km/h 11% 0.00in /  0mm 615.0 W/m2
15:16 93.6 °F /  34.2 °C 31.1 °F /  -0.5 °C 30.15in /  1020.9hPa West 0.9mph /  1.4km/h 6.0mph /  9.7km/h 11% 0.00in /  0mm 599.0 W/m2
15:22 93.6 °F /  34.2 °C 31.1 °F /  -0.5 °C 30.15in /  1020.9hPa WSW 0.9mph /  1.4km/h 5.0mph /  8km/h 11% 0.00in /  0mm 585.0 W/m2
15:28 93.2 °F /  34 °C 30.9 °F /  -0.6 °C 30.15in /  1020.9hPa NW 2.9mph /  4.7km/h 8.0mph /  12.9km/h 11% 0.00in /  0mm 563.0 W/m2
15:35 93.2 °F /  34 °C 30.9 °F /  -0.6 °C 30.15in /  1020.9hPa Calm   7.0mph /  11.3km/h 11% 0.00in /  0mm 547.0 W/m2
15:41 93.2 °F /  34 °C 30.9 °F /  -0.6 °C 30.15in /  1020.9hPa Calm   4.0mph /  6.4km/h 11% 0.00in /  0mm 526.0 W/m2
15:47 93.4 °F /  34.1 °C 31.1 °F /  -0.5 °C 30.15in /  1020.9hPa Calm   1.0mph /  1.6km/h 11% 0.00in /  0mm 504.0 W/m2
15:53 93.6 °F /  34.2 °C 28.8 °F /  -1.8 °C 30.15in /  1020.9hPa WNW 2.9mph /  4.7km/h 3.0mph /  4.8km/h 10% 0.00in /  0mm 490.0 W/m2
15:59 93.6 °F /  34.2 °C 31.1 °F /  -0.5 °C 30.15in /  1020.9hPa Calm   3.0mph /  4.8km/h 11% 0.00in /  0mm 471.0 W/m2
16:05 93.0 °F /  33.9 °C 30.7 °F /  -0.7 °C 30.14in /  1020.5hPa Calm   2.0mph /  3.2km/h 11% 0.00in /  0mm 445.0 W/m2
16:17 93.0 °F /  33.9 °C 30.7 °F /  -0.7 °C 30.14in /  1020.5hPa NW 4.0mph /  6.4km/h 4.0mph /  6.4km/h 11% 0.00in /  0mm 404.0 W/m2
16:24 92.8 °F /  33.8 °C 30.6 °F /  -0.8 °C 30.14in /  1020.5hPa Calm   5.0mph /  8km/h 11% 0.00in /  0mm 388.0 W/m2
16:30 93.4 °F /  34.1 °C 31.1 °F /  -0.5 °C 30.14in /  1020.5hPa West 0.9mph /  1.4km/h 3.0mph /  4.8km/h 11% 0.00in /  0mm 371.0 W/m2
16:36 93.4 °F /  34.1 °C 28.8 °F /  -1.8 °C 30.14in /  1020.5hPa Calm   6.0mph /  9.7km/h 10% 0.00in /  0mm 355.0 W/m2
16:42 93.0 °F /  33.9 °C 30.7 °F /  -0.7 °C 30.14in /  1020.5hPa Calm   5.0mph /  8km/h 11% 0.00in /  0mm 325.0 W/m2
16:48 92.8 °F /  33.8 °C 28.2 °F /  -2.1 °C 30.14in /  1020.5hPa Calm   2.0mph /  3.2km/h 10% 0.00in /  0mm 304.0 W/m2
16:54 93.0 °F /  33.9 °C 30.7 °F /  -0.7 °C 30.14in /  1020.5hPa West 2.0mph /  3.2km/h 4.0mph /  6.4km/h 11% 0.00in /  0mm 281.0 W/m2
17:01 93.0 °F /  33.9 °C 30.7 °F /  -0.7 °C 30.14in /  1020.5hPa Calm   3.0mph /  4.8km/h 11% 0.00in /  0mm 265.0 W/m2
17:07 93.0 °F /  33.9 °C 28.4 °F /  -2 °C 30.14in /  1020.5hPa Calm   1.0mph /  1.6km/h 10% 0.00in /  0mm 246.0 W/m2
17:13 92.7 °F /  33.7 °C 30.6 °F /  -0.8 °C 30.14in /  1020.5hPa Calm     11% 0.00in /  0mm 227.0 W/m2
17:19 92.7 °F /  33.7 °C 30.6 °F /  -0.8 °C 30.14in /  1020.5hPa Calm   1.0mph /  1.6km/h 11% 0.00in /  0mm 206.0 W/m2
17:25 93.0 °F /  33.9 °C 28.4 °F /  -2 °C 30.14in /  1020.5hPa Calm   1.0mph /  1.6km/h 10% 0.00in /  0mm 186.0 W/m2
17:31 93.0 °F /  33.9 °C 30.7 °F /  -0.7 °C 30.14in /  1020.5hPa Calm   3.0mph /  4.8km/h 11% 0.00in /  0mm 165.0 W/m2
17:37 92.8 °F /  33.8 °C 30.6 °F /  -0.8 °C 30.14in /  1020.5hPa Calm   1.0mph /  1.6km/h 11% 0.00in /  0mm 148.0 W/m2
17:43 93.0 °F /  33.9 °C 28.4 °F /  -2 °C 30.14in /  1020.5hPa North 0.9mph /  1.4km/h 3.0mph /  4.8km/h 10% 0.00in /  0mm 128.0 W/m2
17:49 93.0 °F /  33.9 °C 30.7 °F /  -0.7 °C 30.14in /  1020.5hPa Calm   1.0mph /  1.6km/h 11% 0.00in /  0mm 111.0 W/m2
17:56 92.8 °F /  33.8 °C 28.2 °F /  -2.1 °C 30.15in /  1020.9hPa Calm   1.0mph /  1.6km/h 10% 0.00in /  0mm 90.0 W/m2
18:02 92.1 °F /  33.4 °C 30.0 °F /  -1.1 °C 30.15in /  1020.9hPa Calm   1.0mph /  1.6km/h 11% 0.00in /  0mm 70.0 W/m2
18:08 91.8 °F /  33.2 °C 29.8 °F /  -1.2 °C 30.15in /  1020.9hPa WSW 2.0mph /  3.2km/h 2.0mph /  3.2km/h 11% 0.00in /  0mm 39.0 W/m2
18:14 90.9 °F /  32.7 °C 31.3 °F /  -0.4 °C 30.15in /  1020.9hPa Calm   1.0mph /  1.6km/h 12% 0.00in /  0mm 33.0 W/m2
18:20 90.1 °F /  32.3 °C 30.7 °F /  -0.7 °C 30.15in /  1020.9hPa Calm     12% 0.00in /  0mm 28.0 W/m2
18:26 89.8 °F /  32.1 °C 30.4 °F /  -0.9 °C 30.15in /  1020.9hPa Calm     12% 0.00in /  0mm 21.0 W/m2
18:32 89.1 °F /  31.7 °C 29.8 °F /  -1.2 °C 30.16in /  1021.2hPa Calm     12% 0.00in /  0mm 14.0 W/m2
18:38 88.5 °F /  31.4 °C 31.5 °F /  -0.3 °C 30.15in /  1020.9hPa Calm     13% 0.00in /  0mm 9.0 W/m2
18:45 87.8 °F /  31 °C 30.9 °F /  -0.6 °C 30.16in /  1021.2hPa Calm     13% 0.00in /  0mm 0.0 W/m2
18:51 87.1 °F /  30.6 °C 32.2 °F /  0.1 °C 30.16in /  1021.2hPa Calm     14% 0.00in /  0mm 0.0 W/m2
18:57 86.4 °F /  30.2 °C 33.3 °F /  0.7 °C 30.16in /  1021.2hPa Calm     15% 0.00in /  0mm 0.0 W/m2
19:03 85.6 °F /  29.8 °C 32.7 °F /  0.4 °C 30.16in /  1021.2hPa Calm     15% 0.00in /  0mm 0.0 W/m2
19:09 84.7 °F /  29.3 °C 32.0 °F /  0 °C 30.16in /  1021.2hPa Calm     15% 0.00in /  0mm 0.0 W/m2
19:16 84.0 °F /  28.9 °C 31.5 °F /  -0.3 °C 30.17in /  1021.6hPa Calm     15% 0.00in /  0mm 0.0 W/m2
19:22 83.5 °F /  28.6 °C 32.5 °F /  0.3 °C 30.17in /  1021.6hPa Calm     16% 0.00in /  0mm 0.0 W/m2
19:34 82.0 °F /  27.8 °C 31.5 °F /  -0.3 °C 30.18in /  1021.9hPa Calm     16% 0.00in /  0mm 0.0 W/m2
19:40 81.5 °F /  27.5 °C 32.5 °F /  0.3 °C 30.18in /  1021.9hPa Calm     17% 0.00in /  0mm 0.0 W/m2
19:46 81.0 °F /  27.2 °C 32.0 °F /  0 °C 30.18in /  1021.9hPa Calm     17% 0.00in /  0mm 0.0 W/m2
19:52 80.2 °F /  26.8 °C 32.9 °F /  0.5 °C 30.18in /  1021.9hPa Calm     18% 0.00in /  0mm 0.0 W/m2
19:58 79.7 °F /  26.5 °C 31.1 °F /  -0.5 °C 30.19in /  1022.2hPa Calm     17% 0.00in /  0mm 0.0 W/m2
20:05 79.2 °F /  26.2 °C 32.0 °F /  0 °C 30.19in /  1022.2hPa Calm     18% 0.00in /  0mm 0.0 W/m2
20:11 78.6 °F /  25.9 °C 31.6 °F /  -0.2 °C 30.20in /  1022.6hPa Calm   1.0mph /  1.6km/h 18% 0.00in /  0mm 0.0 W/m2
20:17 78.3 °F /  25.7 °C 31.3 °F /  -0.4 °C 30.20in /  1022.6hPa Calm     18% 0.00in /  0mm 0.0 W/m2
20:23 77.7 °F /  25.4 °C 32.2 °F /  0.1 °C 30.20in /  1022.6hPa Calm     19% 0.00in /  0mm 0.0 W/m2
20:29 77.4 °F /  25.2 °C 31.8 °F /  -0.1 °C 30.20in /  1022.6hPa Calm     19% 0.00in /  0mm 0.0 W/m2
20:35 76.8 °F /  24.9 °C 31.5 °F /  -0.3 °C 30.20in /  1022.6hPa Calm     19% 0.00in /  0mm 0.0 W/m2
20:42 76.6 °F /  24.8 °C 31.3 °F /  -0.4 °C 30.21in /  1022.9hPa Calm     19% 0.00in /  0mm 0.0 W/m2
20:48 76.3 °F /  24.6 °C 30.9 °F /  -0.6 °C 30.21in /  1022.9hPa Calm     19% 0.00in /  0mm 0.0 W/m2
20:54 76.1 °F /  24.5 °C 32.2 °F /  0.1 °C 30.21in /  1022.9hPa Calm     20% 0.00in /  0mm 0.0 W/m2
21:00 75.7 °F /  24.3 °C 31.8 °F /  -0.1 °C 30.22in /  1023.2hPa Calm     20% 0.00in /  0mm 0.0 W/m2
21:06 75.6 °F /  24.2 °C 31.6 °F /  -0.2 °C 30.22in /  1023.2hPa ESE 1.0mph /  1.6km/h 1.0mph /  1.6km/h 20% 0.00in /  0mm 0.0 W/m2
21:12 75.6 °F /  24.2 °C 31.6 °F /  -0.2 °C 30.22in /  1023.2hPa SE 0.9mph /  1.4km/h 4.0mph /  6.4km/h 20% 0.00in /  0mm 0.0 W/m2
21:18 75.7 °F /  24.3 °C 33.1 °F /  0.6 °C 30.22in /  1023.2hPa SE 0.9mph /  1.4km/h 4.0mph /  6.4km/h 21% 0.00in /  0mm 0.0 W/m2
21:24 76.1 °F /  24.5 °C 32.2 °F /  0.1 °C 30.23in /  1023.6hPa Calm   1.0mph /  1.6km/h 20% 0.00in /  0mm 0.0 W/m2
21:31 76.5 °F /  24.7 °C 33.6 °F /  0.9 °C 30.23in /  1023.6hPa Calm   1.0mph /  1.6km/h 21% 0.00in /  0mm 0.0 W/m2
21:37 76.8 °F /  24.9 °C 32.7 °F /  0.4 °C 30.23in /  1023.6hPa Calm   5.0mph /  8km/h 20% 0.00in /  0mm 0.0 W/m2
21:43 77.2 °F /  25.1 °C 33.1 °F /  0.6 °C 30.23in /  1023.6hPa Calm   3.0mph /  4.8km/h 20% 0.00in /  0mm 0.0 W/m2
21:49 77.4 °F /  25.2 °C 33.1 °F /  0.6 °C 30.23in /  1023.6hPa Calm     20% 0.00in /  0mm 0.0 W/m2
21:55 77.4 °F /  25.2 °C 33.1 °F /  0.6 °C 30.24in /  1023.9hPa SSW 0.9mph /  1.4km/h 6.0mph /  9.7km/h 20% 0.00in /  0mm 0.0 W/m2
22:01 77.5 °F /  25.3 °C 33.3 °F /  0.7 °C 30.24in /  1023.9hPa Calm   2.0mph /  3.2km/h 20% 0.00in /  0mm 0.0 W/m2
22:07 77.7 °F /  25.4 °C 33.4 °F /  0.8 °C 30.24in /  1023.9hPa Calm   2.0mph /  3.2km/h 20% 0.00in /  0mm 0.0 W/m2
22:13 77.7 °F /  25.4 °C 32.2 °F /  0.1 °C 30.24in /  1023.9hPa Calm   1.0mph /  1.6km/h 19% 0.00in /  0mm 0.0 W/m2
22:20 77.5 °F /  25.3 °C 33.3 °F /  0.7 °C 30.24in /  1023.9hPa Calm   2.0mph /  3.2km/h 20% 0.00in /  0mm 0.0 W/m2
22:26 77.2 °F /  25.1 °C 33.1 °F /  0.6 °C 30.24in /  1023.9hPa Calm     20% 0.00in /  0mm 0.0 W/m2
22:32 76.8 °F /  24.9 °C 32.7 °F /  0.4 °C 30.24in /  1023.9hPa Calm     20% 0.00in /  0mm 0.0 W/m2
22:38 76.5 °F /  24.7 °C 33.6 °F /  0.9 °C 30.25in /  1024.3hPa Calm     21% 0.00in /  0mm 0.0 W/m2
22:44 76.1 °F /  24.5 °C 32.2 °F /  0.1 °C 30.25in /  1024.3hPa Calm     20% 0.00in /  0mm 0.0 W/m2
22:50 75.9 °F /  24.4 °C 33.3 °F /  0.7 °C 30.25in /  1024.3hPa Calm     21% 0.00in /  0mm 0.0 W/m2
22:56 75.6 °F /  24.2 °C 32.9 °F /  0.5 °C 30.25in /  1024.3hPa Calm     21% 0.00in /  0mm 0.0 W/m2
23:02 75.0 °F /  23.9 °C 33.6 °F /  0.9 °C 30.25in /  1024.3hPa Calm     22% 0.00in /  0mm 0.0 W/m2
23:09 74.7 °F /  23.7 °C 33.3 °F /  0.7 °C 30.25in /  1024.3hPa Calm   2.0mph /  3.2km/h 22% 0.00in /  0mm 0.0 W/m2
23:15 74.3 °F /  23.5 °C 34.2 °F /  1.2 °C 30.25in /  1024.3hPa Calm   1.0mph /  1.6km/h 23% 0.00in /  0mm 0.0 W/m2
23:21 73.9 °F /  23.3 °C 33.8 °F /  1 °C 30.25in /  1024.3hPa Calm   2.0mph /  3.2km/h 23% 0.00in /  0mm 0.0 W/m2
23:27 74.1 °F /  23.4 °C 34.0 °F /  1.1 °C 30.25in /  1024.3hPa SSW 2.0mph /  3.2km/h 6.0mph /  9.7km/h 23% 0.00in /  0mm 0.0 W/m2
23:33 74.8 °F /  23.8 °C 34.5 °F /  1.4 °C 30.25in /  1024.3hPa Calm   4.0mph /  6.4km/h 23% 0.00in /  0mm 0.0 W/m2
23:39 75.7 °F /  24.3 °C 35.2 °F /  1.8 °C 30.25in /  1024.3hPa SE 8.1mph /  13km/h 10.0mph /  16.1km/h 23% 0.00in /  0mm 0.0 W/m2
23:45 76.6 °F /  24.8 °C 37.2 °F /  2.9 °C 30.25in /  1024.3hPa SSE 8.1mph /  13km/h 9.0mph /  14.5km/h 24% 0.00in /  0mm 0.0 W/m2
23:52 77.4 °F /  25.2 °C 40.8 °F /  4.9 °C 30.25in /  1024.3hPa South 0.9mph /  1.4km/h 19.0mph /  30.6km/h 27% 0.00in /  0mm 0.0 W/m2
23:58 77.2 °F /  25.1 °C 41.5 °F /  5.3 °C 30.25in /  1024.3hPa SSW 2.0mph /  3.2km/h 13.0mph /  20.9km/h 28% 0.00in /  0mm 0.0 W/m2
Olympia, Windhoek, Namibia
Compliments of Weather Underground - 3 mb